Arsenal, Utah
Current Conditions -  °F | °C
As of 8:58 AM on Friday 21 Nov 2014 (Local Time) from KHIF Reporting Station
Clear Clear  
Wind Chill: 20°   Ceiling: Unl
Heat Index: 33°   Visibility: 10mi
Dew Point: 19°   Wind: 24mph
Humidity: 55%   Direction: 120°ESE
Pressure: 30.03"   Gusts: NA
Location:  41.123°N, 112.063°W
Report Text: KHIF 211558Z 12021KT 10SM CLR 01/M07 A3003 RMK AO2A PK WND 08026/26 SLP176 MIDFLD WND 080/09KT T00051075 $
Loading
Personal Weather Stations






























Interactive Weather Map New forecast layout! Learn more

10-Day Weather Forecast

Advertisements
Track Severe Weather on mobile